sensor_id;sensor_type;location;lat;lon;timestamp;P1;durP1;ratioP1;P2;durP2;ratioP2
42978;SDS011;28616;44.746;19.678;2023-04-24T00:02:05;8.77;;;6.80;;
42978;SDS011;28616;44.746;19.678;2023-04-24T00:04:31;8.63;;;7.03;;
42978;SDS011;28616;44.746;19.678;2023-04-24T00:06:57;7.80;;;7.00;;
42978;SDS011;28616;44.746;19.678;2023-04-24T00:09:25;9.02;;;7.18;;
42978;SDS011;28616;44.746;19.678;2023-04-24T00:11:51;8.60;;;7.45;;
42978;SDS011;28616;44.746;19.678;2023-04-24T00:14:18;8.25;;;7.38;;
42978;SDS011;28616;44.746;19.678;2023-04-24T00:16:44;9.88;;;7.40;;
42978;SDS011;28616;44.746;19.678;2023-04-24T00:19:10;7.70;;;6.90;;
42978;SDS011;28616;44.746;19.678;2023-04-24T00:21:37;7.53;;;6.80;;
42978;SDS011;28616;44.746;19.678;2023-04-24T00:24:03;8.63;;;7.60;;
42978;SDS011;28616;44.746;19.678;2023-04-24T00:26:29;8.65;;;7.28;;
42978;SDS011;28616;44.746;19.678;2023-04-24T00:28:55;9.65;;;8.65;;
42978;SDS011;28616;44.746;19.678;2023-04-24T00:31:20;10.00;;;7.78;;
42978;SDS011;28616;44.746;19.678;2023-04-24T00:33:46;14.38;;;8.70;;
42978;SDS011;28616;44.746;19.678;2023-04-24T00:36:12;11.45;;;8.77;;
42978;SDS011;28616;44.746;19.678;2023-04-24T00:38:38;10.63;;;7.57;;
42978;SDS011;28616;44.746;19.678;2023-04-24T00:41:04;16.33;;;9.35;;
42978;SDS011;28616;44.746;19.678;2023-04-24T00:43:30;17.02;;;10.18;;
42978;SDS011;28616;44.746;19.678;2023-04-24T00:45:56;16.27;;;9.70;;
42978;SDS011;28616;44.746;19.678;2023-04-24T00:48:24;15.98;;;8.85;;
42978;SDS011;28616;44.746;19.678;2023-04-24T00:50:50;10.95;;;8.75;;
42978;SDS011;28616;44.746;19.678;2023-04-24T00:53:16;11.48;;;8.27;;
42978;SDS011;28616;44.746;19.678;2023-04-24T00:55:42;10.43;;;8.63;;
42978;SDS011;28616;44.746;19.678;2023-04-24T00:58:08;13.20;;;7.85;;
42978;SDS011;28616;44.746;19.678;2023-04-24T01:00:34;11.63;;;8.55;;
42978;SDS011;28616;44.746;19.678;2023-04-24T01:03:00;13.50;;;9.57;;
42978;SDS011;28616;44.746;19.678;2023-04-24T01:05:29;10.98;;;8.45;;
42978;SDS011;28616;44.746;19.678;2023-04-24T01:07:55;10.32;;;8.40;;
42978;SDS011;28616;44.746;19.678;2023-04-24T01:10:21;13.80;;;9.10;;
42978;SDS011;28616;44.746;19.678;2023-04-24T01:12:49;12.90;;;8.70;;
42978;SDS011;28616;44.746;19.678;2023-04-24T01:15:16;16.27;;;8.93;;
42978;SDS011;28616;44.746;19.678;2023-04-24T01:17:41;13.07;;;8.75;;
42978;SDS011;28616;44.746;19.678;2023-04-24T01:20:07;8.77;;;7.57;;
42978;SDS011;28616;44.746;19.678;2023-04-24T01:22:34;12.38;;;8.57;;
42978;SDS011;28616;44.746;19.678;2023-04-24T01:25:00;10.70;;;7.78;;
42978;SDS011;28616;44.746;19.678;2023-04-24T01:27:26;9.23;;;7.65;;
42978;SDS011;28616;44.746;19.678;2023-04-24T01:29:52;9.95;;;7.65;;
42978;SDS011;28616;44.746;19.678;2023-04-24T01:32:18;11.80;;;8.20;;
42978;SDS011;28616;44.746;19.678;2023-04-24T01:34:45;15.80;;;9.20;;
42978;SDS011;28616;44.746;19.678;2023-04-24T01:37:11;14.50;;;8.88;;
42978;SDS011;28616;44.746;19.678;2023-04-24T01:39:37;11.73;;;8.50;;
42978;SDS011;28616;44.746;19.678;2023-04-24T01:42:03;10.55;;;8.07;;
42978;SDS011;28616;44.746;19.678;2023-04-24T01:44:30;10.05;;;7.60;;
42978;SDS011;28616;44.746;19.678;2023-04-24T01:46:57;16.25;;;8.25;;
42978;SDS011;28616;44.746;19.678;2023-04-24T01:49:22;9.50;;;8.02;;
42978;SDS011;28616;44.746;19.678;2023-04-24T01:51:48;11.18;;;8.77;;
42978;SDS011;28616;44.746;19.678;2023-04-24T01:54:14;11.32;;;7.95;;
42978;SDS011;28616;44.746;19.678;2023-04-24T01:56:40;10.13;;;8.10;;
42978;SDS011;28616;44.746;19.678;2023-04-24T01:59:08;9.15;;;7.43;;
42978;SDS011;28616;44.746;19.678;2023-04-24T02:01:35;16.63;;;8.35;;
42978;SDS011;28616;44.746;19.678;2023-04-24T02:04:02;8.52;;;7.13;;
42978;SDS011;28616;44.746;19.678;2023-04-24T02:06:29;10.45;;;8.35;;
42978;SDS011;28616;44.746;19.678;2023-04-24T02:08:56;9.52;;;7.30;;
42978;SDS011;28616;44.746;19.678;2023-04-24T02:11:23;12.30;;;8.57;;
42978;SDS011;28616;44.746;19.678;2023-04-24T02:13:49;12.93;;;9.13;;
42978;SDS011;28616;44.746;19.678;2023-04-24T02:16:15;11.23;;;8.32;;
42978;SDS011;28616;44.746;19.678;2023-04-24T02:18:41;11.98;;;8.30;;
42978;SDS011;28616;44.746;19.678;2023-04-24T02:21:07;9.75;;;8.63;;
42978;SDS011;28616;44.746;19.678;2023-04-24T02:23:32;9.63;;;8.50;;
42978;SDS011;28616;44.746;19.678;2023-04-24T02:25:58;10.20;;;8.85;;
42978;SDS011;28616;44.746;19.678;2023-04-24T02:28:24;11.85;;;8.30;;
42978;SDS011;28616;44.746;19.678;2023-04-24T02:30:50;11.68;;;8.95;;
42978;SDS011;28616;44.746;19.678;2023-04-24T02:33:16;12.55;;;7.63;;
42978;SDS011;28616;44.746;19.678;2023-04-24T02:35:41;9.43;;;8.27;;
42978;SDS011;28616;44.746;19.678;2023-04-24T02:38:07;12.48;;;8.70;;
42978;SDS011;28616;44.746;19.678;2023-04-24T02:40:33;11.18;;;8.73;;
42978;SDS011;28616;44.746;19.678;2023-04-24T02:42:59;15.48;;;7.95;;
42978;SDS011;28616;44.746;19.678;2023-04-24T02:45:25;12.32;;;8.68;;
42978;SDS011;28616;44.746;19.678;2023-04-24T02:47:50;9.48;;;8.32;;
42978;SDS011;28616;44.746;19.678;2023-04-24T02:50:16;11.07;;;8.57;;
42978;SDS011;28616;44.746;19.678;2023-04-24T02:52:42;13.68;;;9.25;;
42978;SDS011;28616;44.746;19.678;2023-04-24T02:55:08;10.48;;;9.30;;
42978;SDS011;28616;44.746;19.678;2023-04-24T02:57:36;17.48;;;10.15;;
42978;SDS011;28616;44.746;19.678;2023-04-24T03:00:02;12.90;;;8.70;;
42978;SDS011;28616;44.746;19.678;2023-04-24T03:02:28;16.45;;;9.15;;
42978;SDS011;28616;44.746;19.678;2023-04-24T03:04:54;13.23;;;8.77;;
42978;SDS011;28616;44.746;19.678;2023-04-24T03:07:20;18.55;;;10.18;;
42978;SDS011;28616;44.746;19.678;2023-04-24T03:09:46;13.02;;;9.73;;
42978;SDS011;28616;44.746;19.678;2023-04-24T03:12:13;15.18;;;9.70;;
42978;SDS011;28616;44.746;19.678;2023-04-24T03:14:38;14.38;;;9.25;;
42978;SDS011;28616;44.746;19.678;2023-04-24T03:17:04;17.23;;;10.00;;
42978;SDS011;28616;44.746;19.678;2023-04-24T03:19:30;14.80;;;8.93;;
42978;SDS011;28616;44.746;19.678;2023-04-24T03:21:56;14.80;;;9.00;;
42978;SDS011;28616;44.746;19.678;2023-04-24T03:24:22;11.05;;;8.60;;
42978;SDS011;28616;44.746;19.678;2023-04-24T03:26:47;12.38;;;8.65;;
42978;SDS011;28616;44.746;19.678;2023-04-24T03:29:13;18.20;;;8.82;;
42978;SDS011;28616;44.746;19.678;2023-04-24T03:31:39;12.60;;;8.85;;
42978;SDS011;28616;44.746;19.678;2023-04-24T03:34:05;16.45;;;9.48;;
42978;SDS011;28616;44.746;19.678;2023-04-24T03:36:30;14.15;;;8.85;;
42978;SDS011;28616;44.746;19.678;2023-04-24T03:38:56;14.23;;;8.63;;
42978;SDS011;28616;44.746;19.678;2023-04-24T03:41:22;14.35;;;8.85;;
42978;SDS011;28616;44.746;19.678;2023-04-24T03:43:48;21.55;;;10.07;;
42978;SDS011;28616;44.746;19.678;2023-04-24T03:46:13;15.20;;;10.55;;
42978;SDS011;28616;44.746;19.678;2023-04-24T03:48:40;17.48;;;10.10;;
42978;SDS011;28616;44.746;19.678;2023-04-24T03:51:05;15.48;;;9.52;;
42978;SDS011;28616;44.746;19.678;2023-04-24T03:53:31;17.52;;;10.27;;
42978;SDS011;28616;44.746;19.678;2023-04-24T03:55:57;13.98;;;8.60;;
42978;SDS011;28616;44.746;19.678;2023-04-24T03:58:23;14.65;;;8.70;;
42978;SDS011;28616;44.746;19.678;2023-04-24T04:00:49;12.55;;;7.88;;
42978;SDS011;28616;44.746;19.678;2023-04-24T04:03:15;13.48;;;9.75;;
42978;SDS011;28616;44.746;19.678;2023-04-24T04:05:41;12.15;;;8.73;;
42978;SDS011;28616;44.746;19.678;2023-04-24T04:08:09;13.63;;;8.77;;
42978;SDS011;28616;44.746;19.678;2023-04-24T04:10:35;16.30;;;11.07;;
42978;SDS011;28616;44.746;19.678;2023-04-24T04:13:01;18.38;;;10.18;;
42978;SDS011;28616;44.746;19.678;2023-04-24T04:15:29;11.90;;;9.15;;
42978;SDS011;28616;44.746;19.678;2023-04-24T04:17:55;10.80;;;8.60;;
42978;SDS011;28616;44.746;19.678;2023-04-24T04:23:44;14.98;;;8.57;;
42978;SDS011;28616;44.746;19.678;2023-04-24T04:26:11;12.00;;;8.13;;
42978;SDS011;28616;44.746;19.678;2023-04-24T04:28:37;12.98;;;8.48;;
42978;SDS011;28616;44.746;19.678;2023-04-24T04:31:04;14.50;;;8.50;;
42978;SDS011;28616;44.746;19.678;2023-04-24T04:33:30;22.08;;;10.70;;
42978;SDS011;28616;44.746;19.678;2023-04-24T04:35:56;23.83;;;13.07;;
42978;SDS011;28616;44.746;19.678;2023-04-24T04:38:22;25.05;;;12.20;;
42978;SDS011;28616;44.746;19.678;2023-04-24T04:40:48;35.28;;;13.38;;
42978;SDS011;28616;44.746;19.678;2023-04-24T04:43:14;27.73;;;13.15;;
42978;SDS011;28616;44.746;19.678;2023-04-24T04:45:41;23.02;;;12.75;;
42978;SDS011;28616;44.746;19.678;2023-04-24T04:48:09;24.25;;;11.70;;
42978;SDS011;28616;44.746;19.678;2023-04-24T04:50:56;19.45;;;10.85;;
42978;SDS011;28616;44.746;19.678;2023-04-24T04:53:23;11.35;;;9.05;;
42978;SDS011;28616;44.746;19.678;2023-04-24T04:55:51;15.35;;;8.98;;
42978;SDS011;28616;44.746;19.678;2023-04-24T04:58:17;10.40;;;8.57;;
42978;SDS011;28616;44.746;19.678;2023-04-24T05:00:43;11.18;;;8.60;;
42978;SDS011;28616;44.746;19.678;2023-04-24T05:03:09;12.93;;;9.00;;
42978;SDS011;28616;44.746;19.678;2023-04-24T05:05:35;11.88;;;8.30;;
42978;SDS011;28616;44.746;19.678;2023-04-24T05:08:05;12.68;;;8.48;;
42978;SDS011;28616;44.746;19.678;2023-04-24T05:10:34;18.33;;;10.15;;
42978;SDS011;28616;44.746;19.678;2023-04-24T05:13:02;13.48;;;9.07;;
42978;SDS011;28616;44.746;19.678;2023-04-24T05:15:28;17.75;;;9.30;;
42978;SDS011;28616;44.746;19.678;2023-04-24T05:17:55;16.35;;;10.13;;
42978;SDS011;28616;44.746;19.678;2023-04-24T05:20:22;15.52;;;10.07;;
42978;SDS011;28616;44.746;19.678;2023-04-24T05:22:47;16.17;;;11.77;;
42978;SDS011;28616;44.746;19.678;2023-04-24T05:25:13;16.75;;;10.38;;
42978;SDS011;28616;44.746;19.678;2023-04-24T05:27:39;13.55;;;9.30;;
42978;SDS011;28616;44.746;19.678;2023-04-24T05:30:05;12.40;;;9.00;;
42978;SDS011;28616;44.746;19.678;2023-04-24T05:32:32;13.57;;;8.70;;
42978;SDS011;28616;44.746;19.678;2023-04-24T05:34:58;11.70;;;7.93;;
42978;SDS011;28616;44.746;19.678;2023-04-24T05:37:24;9.75;;;7.55;;
42978;SDS011;28616;44.746;19.678;2023-04-24T05:39:53;12.35;;;8.20;;
42978;SDS011;28616;44.746;19.678;2023-04-24T05:42:19;8.25;;;7.45;;
42978;SDS011;28616;44.746;19.678;2023-04-24T05:44:44;9.13;;;6.75;;
42978;SDS011;28616;44.746;19.678;2023-04-24T05:47:10;10.75;;;7.90;;
42978;SDS011;28616;44.746;19.678;2023-04-24T05:49:36;9.23;;;7.35;;
42978;SDS011;28616;44.746;19.678;2023-04-24T05:52:02;9.65;;;7.97;;
42978;SDS011;28616;44.746;19.678;2023-04-24T05:57:17;11.27;;;7.38;;
42978;SDS011;28616;44.746;19.678;2023-04-24T05:59:46;11.80;;;7.75;;
42978;SDS011;28616;44.746;19.678;2023-04-24T06:02:14;14.20;;;8.43;;
42978;SDS011;28616;44.746;19.678;2023-04-24T06:04:40;11.02;;;7.93;;
42978;SDS011;28616;44.746;19.678;2023-04-24T06:07:06;14.70;;;8.38;;
42978;SDS011;28616;44.746;19.678;2023-04-24T06:12:04;11.02;;;7.68;;
42978;SDS011;28616;44.746;19.678;2023-04-24T06:14:29;12.40;;;7.60;;
42978;SDS011;28616;44.746;19.678;2023-04-24T06:16:55;9.15;;;7.70;;
42978;SDS011;28616;44.746;19.678;2023-04-24T06:19:21;13.68;;;8.07;;
42978;SDS011;28616;44.746;19.678;2023-04-24T06:21:47;12.63;;;7.35;;
42978;SDS011;28616;44.746;19.678;2023-04-24T06:24:13;10.35;;;7.80;;
42978;SDS011;28616;44.746;19.678;2023-04-24T06:26:40;10.15;;;8.45;;
42978;SDS011;28616;44.746;19.678;2023-04-24T06:29:06;9.80;;;7.53;;
42978;SDS011;28616;44.746;19.678;2023-04-24T06:31:32;8.95;;;7.97;;
42978;SDS011;28616;44.746;19.678;2023-04-24T06:34:02;10.93;;;7.93;;
42978;SDS011;28616;44.746;19.678;2023-04-24T06:36:28;15.73;;;8.55;;
42978;SDS011;28616;44.746;19.678;2023-04-24T06:38:55;9.57;;;7.88;;
42978;SDS011;28616;44.746;19.678;2023-04-24T06:41:22;10.25;;;8.00;;
42978;SDS011;28616;44.746;19.678;2023-04-24T06:43:48;9.95;;;8.48;;
42978;SDS011;28616;44.746;19.678;2023-04-24T06:46:13;11.25;;;8.30;;
42978;SDS011;28616;44.746;19.678;2023-04-24T06:48:39;13.05;;;8.50;;
42978;SDS011;28616;44.746;19.678;2023-04-24T06:51:05;11.68;;;8.95;;
42978;SDS011;28616;44.746;19.678;2023-04-24T06:53:34;9.27;;;7.85;;
42978;SDS011;28616;44.746;19.678;2023-04-24T06:56:00;11.13;;;8.30;;
42978;SDS011;28616;44.746;19.678;2023-04-24T06:58:26;14.38;;;10.20;;
42978;SDS011;28616;44.746;19.678;2023-04-24T07:00:52;10.45;;;9.35;;
42978;SDS011;28616;44.746;19.678;2023-04-24T07:03:17;12.27;;;8.65;;
42978;SDS011;28616;44.746;19.678;2023-04-24T07:05:43;10.93;;;8.93;;
42978;SDS011;28616;44.746;19.678;2023-04-24T07:08:13;11.30;;;9.73;;
42978;SDS011;28616;44.746;19.678;2023-04-24T07:10:38;10.90;;;9.00;;
42978;SDS011;28616;44.746;19.678;2023-04-24T07:13:04;13.00;;;8.27;;
42978;SDS011;28616;44.746;19.678;2023-04-24T07:15:32;10.93;;;8.52;;
42978;SDS011;28616;44.746;19.678;2023-04-24T07:17:57;11.40;;;8.63;;
42978;SDS011;28616;44.746;19.678;2023-04-24T07:20:23;13.75;;;9.68;;
42978;SDS011;28616;44.746;19.678;2023-04-24T07:22:49;12.15;;;9.18;;
42978;SDS011;28616;44.746;19.678;2023-04-24T07:25:16;13.30;;;8.85;;
42978;SDS011;28616;44.746;19.678;2023-04-24T07:27:42;12.45;;;9.43;;
42978;SDS011;28616;44.746;19.678;2023-04-24T07:30:14;12.07;;;9.70;;
42978;SDS011;28616;44.746;19.678;2023-04-24T07:35:06;13.55;;;10.00;;
42978;SDS011;28616;44.746;19.678;2023-04-24T07:37:34;15.82;;;9.95;;
42978;SDS011;28616;44.746;19.678;2023-04-24T07:40:01;19.80;;;10.50;;
42978;SDS011;28616;44.746;19.678;2023-04-24T07:42:27;15.98;;;11.43;;
42978;SDS011;28616;44.746;19.678;2023-04-24T07:44:55;17.60;;;11.43;;
42978;SDS011;28616;44.746;19.678;2023-04-24T07:47:21;15.55;;;11.13;;
42978;SDS011;28616;44.746;19.678;2023-04-24T07:49:47;12.85;;;9.68;;
42978;SDS011;28616;44.746;19.678;2023-04-24T07:52:13;16.27;;;9.90;;
42978;SDS011;28616;44.746;19.678;2023-04-24T07:54:38;14.23;;;9.63;;
42978;SDS011;28616;44.746;19.678;2023-04-24T07:57:04;12.57;;;9.48;;
42978;SDS011;28616;44.746;19.678;2023-04-24T07:59:31;14.40;;;9.88;;
42978;SDS011;28616;44.746;19.678;2023-04-24T08:01:57;16.65;;;10.15;;
42978;SDS011;28616;44.746;19.678;2023-04-24T08:04:26;20.00;;;10.68;;
42978;SDS011;28616;44.746;19.678;2023-04-24T08:06:55;16.35;;;9.65;;
42978;SDS011;28616;44.746;19.678;2023-04-24T08:09:21;14.88;;;9.95;;
42978;SDS011;28616;44.746;19.678;2023-04-24T08:11:47;13.95;;;10.15;;
42978;SDS011;28616;44.746;19.678;2023-04-24T08:14:13;14.60;;;9.68;;
42978;SDS011;28616;44.746;19.678;2023-04-24T08:16:40;15.73;;;10.93;;
42978;SDS011;28616;44.746;19.678;2023-04-24T08:19:06;17.42;;;10.20;;
42978;SDS011;28616;44.746;19.678;2023-04-24T08:21:32;13.07;;;10.65;;
42978;SDS011;28616;44.746;19.678;2023-04-24T08:23:58;12.20;;;9.40;;
42978;SDS011;28616;44.746;19.678;2023-04-24T08:26:24;12.23;;;8.98;;
42978;SDS011;28616;44.746;19.678;2023-04-24T08:28:50;13.75;;;10.07;;
42978;SDS011;28616;44.746;19.678;2023-04-24T08:31:16;15.52;;;9.88;;
42978;SDS011;28616;44.746;19.678;2023-04-24T08:33:42;13.15;;;9.77;;
42978;SDS011;28616;44.746;19.678;2023-04-24T08:36:10;13.85;;;9.80;;
42978;SDS011;28616;44.746;19.678;2023-04-24T08:38:35;19.45;;;10.13;;
42978;SDS011;28616;44.746;19.678;2023-04-24T08:41:01;17.40;;;11.25;;
42978;SDS011;28616;44.746;19.678;2023-04-24T08:43:27;19.55;;;10.82;;
42978;SDS011;28616;44.746;19.678;2023-04-24T08:45:55;20.83;;;11.80;;
42978;SDS011;28616;44.746;19.678;2023-04-24T08:48:23;20.60;;;12.02;;
42978;SDS011;28616;44.746;19.678;2023-04-24T08:50:52;16.85;;;11.63;;
42978;SDS011;28616;44.746;19.678;2023-04-24T08:53:19;16.10;;;10.27;;
42978;SDS011;28616;44.746;19.678;2023-04-24T08:55:47;14.55;;;10.70;;
42978;SDS011;28616;44.746;19.678;2023-04-24T08:58:14;19.38;;;12.43;;
42978;SDS011;28616;44.746;19.678;2023-04-24T09:00:41;20.10;;;11.60;;
42978;SDS011;28616;44.746;19.678;2023-04-24T09:03:11;21.30;;;12.25;;
42978;SDS011;28616;44.746;19.678;2023-04-24T09:05:41;20.48;;;11.65;;
42978;SDS011;28616;44.746;19.678;2023-04-24T09:08:18;14.73;;;10.20;;
42978;SDS011;28616;44.746;19.678;2023-04-24T09:10:44;20.80;;;11.02;;
42978;SDS011;28616;44.746;19.678;2023-04-24T09:13:10;30.10;;;15.98;;
42978;SDS011;28616;44.746;19.678;2023-04-24T09:15:37;18.25;;;10.80;;
42978;SDS011;28616;44.746;19.678;2023-04-24T09:18:04;23.70;;;14.65;;
42978;SDS011;28616;44.746;19.678;2023-04-24T09:20:30;30.33;;;14.13;;
42978;SDS011;28616;44.746;19.678;2023-04-24T09:22:57;29.17;;;16.17;;
42978;SDS011;28616;44.746;19.678;2023-04-24T09:25:25;26.60;;;13.40;;
42978;SDS011;28616;44.746;19.678;2023-04-24T09:28:01;20.15;;;11.98;;
42978;SDS011;28616;44.746;19.678;2023-04-24T09:30:28;29.60;;;17.67;;
42978;SDS011;28616;44.746;19.678;2023-04-24T09:33:13;19.13;;;11.90;;
42978;SDS011;28616;44.746;19.678;2023-04-24T09:35:50;19.85;;;11.93;;
42978;SDS011;28616;44.746;19.678;2023-04-24T09:41:05;20.08;;;13.27;;
42978;SDS011;28616;44.746;19.678;2023-04-24T09:43:33;18.17;;;11.75;;
42978;SDS011;28616;44.746;19.678;2023-04-24T09:46:12;14.55;;;10.10;;
42978;SDS011;28616;44.746;19.678;2023-04-24T09:48:38;17.15;;;11.40;;
42978;SDS011;28616;44.746;19.678;2023-04-24T09:51:05;13.88;;;9.63;;
42978;SDS011;28616;44.746;19.678;2023-04-24T09:53:32;18.70;;;10.60;;
42978;SDS011;28616;44.746;19.678;2023-04-24T09:56:08;14.38;;;10.02;;
42978;SDS011;28616;44.746;19.678;2023-04-24T09:58:38;19.38;;;13.02;;
42978;SDS011;28616;44.746;19.678;2023-04-24T10:01:04;20.75;;;11.80;;
42978;SDS011;28616;44.746;19.678;2023-04-24T10:03:34;13.68;;;10.32;;
42978;SDS011;28616;44.746;19.678;2023-04-24T10:06:02;18.38;;;10.68;;
42978;SDS011;28616;44.746;19.678;2023-04-24T10:08:36;20.77;;;10.43;;
42978;SDS011;28616;44.746;19.678;2023-04-24T10:11:04;16.25;;;10.00;;
42978;SDS011;28616;44.746;19.678;2023-04-24T10:13:37;11.45;;;8.88;;
42978;SDS011;28616;44.746;19.678;2023-04-24T10:16:05;14.05;;;9.18;;
42978;SDS011;28616;44.746;19.678;2023-04-24T10:18:32;15.95;;;11.13;;
42978;SDS011;28616;44.746;19.678;2023-04-24T10:21:00;16.95;;;10.77;;
42978;SDS011;28616;44.746;19.678;2023-04-24T10:23:27;18.73;;;11.80;;
42978;SDS011;28616;44.746;19.678;2023-04-24T10:25:55;16.08;;;11.70;;
42978;SDS011;28616;44.746;19.678;2023-04-24T10:28:27;14.18;;;10.18;;
42978;SDS011;28616;44.746;19.678;2023-04-24T10:30:55;15.10;;;10.68;;
42978;SDS011;28616;44.746;19.678;2023-04-24T10:33:21;14.30;;;9.77;;
42978;SDS011;28616;44.746;19.678;2023-04-24T10:35:48;14.50;;;9.98;;
42978;SDS011;28616;44.746;19.678;2023-04-24T10:38:18;18.15;;;10.27;;
42978;SDS011;28616;44.746;19.678;2023-04-24T10:40:54;13.80;;;10.05;;
42978;SDS011;28616;44.746;19.678;2023-04-24T10:43:32;14.60;;;9.60;;
42978;SDS011;28616;44.746;19.678;2023-04-24T10:46:02;14.07;;;10.43;;
42978;SDS011;28616;44.746;19.678;2023-04-24T10:48:30;15.07;;;10.23;;
42978;SDS011;28616;44.746;19.678;2023-04-24T10:50:57;11.00;;;8.75;;
42978;SDS011;28616;44.746;19.678;2023-04-24T10:53:24;13.32;;;8.93;;
42978;SDS011;28616;44.746;19.678;2023-04-24T10:58:45;10.77;;;7.95;;
42978;SDS011;28616;44.746;19.678;2023-04-24T11:01:25;12.35;;;9.13;;
42978;SDS011;28616;44.746;19.678;2023-04-24T11:03:58;13.82;;;9.40;;
42978;SDS011;28616;44.746;19.678;2023-04-24T11:06:36;12.70;;;8.75;;
42978;SDS011;28616;44.746;19.678;2023-04-24T11:09:03;9.43;;;8.43;;
42978;SDS011;28616;44.746;19.678;2023-04-24T11:11:31;12.85;;;8.32;;
42978;SDS011;28616;44.746;19.678;2023-04-24T11:16:33;9.88;;;8.85;;
42978;SDS011;28616;44.746;19.678;2023-04-24T11:26:54;8.15;;;7.35;;
42978;SDS011;28616;44.746;19.678;2023-04-24T11:29:48;7.80;;;7.13;;
42978;SDS011;28616;44.746;19.678;2023-04-24T11:35:04;8.35;;;7.53;;
42978;SDS011;28616;44.746;19.678;2023-04-24T11:40:07;9.45;;;8.43;;
42978;SDS011;28616;44.746;19.678;2023-04-24T11:42:41;10.25;;;8.63;;
42978;SDS011;28616;44.746;19.678;2023-04-24T11:45:14;7.72;;;7.03;;
42978;SDS011;28616;44.746;19.678;2023-04-24T11:47:42;10.00;;;9.00;;
42978;SDS011;28616;44.746;19.678;2023-04-24T11:50:10;11.18;;;9.45;;
42978;SDS011;28616;44.746;19.678;2023-04-24T11:52:44;10.82;;;6.95;;
42978;SDS011;28616;44.746;19.678;2023-04-24T11:57:40;10.02;;;6.97;;
42978;SDS011;28616;44.746;19.678;2023-04-24T12:00:14;10.27;;;7.47;;
42978;SDS011;28616;44.746;19.678;2023-04-24T12:02:43;8.02;;;7.32;;
42978;SDS011;28616;44.746;19.678;2023-04-24T12:05:18;10.27;;;7.32;;
42978;SDS011;28616;44.746;19.678;2023-04-24T12:07:51;8.30;;;7.38;;
42978;SDS011;28616;44.746;19.678;2023-04-24T12:10:22;8.32;;;7.32;;
42978;SDS011;28616;44.746;19.678;2023-04-24T12:12:49;11.07;;;7.60;;
42978;SDS011;28616;44.746;19.678;2023-04-24T12:15:17;10.10;;;7.68;;
42978;SDS011;28616;44.746;19.678;2023-04-24T12:17:46;9.13;;;8.30;;
42978;SDS011;28616;44.746;19.678;2023-04-24T12:20:12;8.27;;;7.45;;
42978;SDS011;28616;44.746;19.678;2023-04-24T12:25:30;8.88;;;7.97;;
42978;SDS011;28616;44.746;19.678;2023-04-24T12:32:57;14.80;;;10.38;;
42978;SDS011;28616;44.746;19.678;2023-04-24T12:35:24;12.75;;;9.00;;
42978;SDS011;28616;44.746;19.678;2023-04-24T12:37:52;9.05;;;8.10;;
42978;SDS011;28616;44.746;19.678;2023-04-24T12:40:18;8.23;;;7.45;;
42978;SDS011;28616;44.746;19.678;2023-04-24T12:42:49;6.90;;;6.30;;
42978;SDS011;28616;44.746;19.678;2023-04-24T12:45:16;6.90;;;6.30;;
42978;SDS011;28616;44.746;19.678;2023-04-24T12:47:44;6.40;;;5.80;;
42978;SDS011;28616;44.746;19.678;2023-04-24T12:50:12;7.88;;;6.75;;
42978;SDS011;28616;44.746;19.678;2023-04-24T12:52:39;13.98;;;8.60;;
42978;SDS011;28616;44.746;19.678;2023-04-24T12:55:06;11.48;;;8.23;;
42978;SDS011;28616;44.746;19.678;2023-04-24T12:57:37;14.15;;;9.10;;
42978;SDS011;28616;44.746;19.678;2023-04-24T13:00:05;10.85;;;8.30;;
42978;SDS011;28616;44.746;19.678;2023-04-24T13:02:32;9.38;;;7.47;;
42978;SDS011;28616;44.746;19.678;2023-04-24T13:04:59;8.48;;;7.55;;
42978;SDS011;28616;44.746;19.678;2023-04-24T13:07:25;11.57;;;7.05;;
42978;SDS011;28616;44.746;19.678;2023-04-24T13:09:52;9.23;;;7.45;;
42978;SDS011;28616;44.746;19.678;2023-04-24T13:12:19;8.82;;;7.60;;
42978;SDS011;28616;44.746;19.678;2023-04-24T13:14:45;16.20;;;7.50;;
42978;SDS011;28616;44.746;19.678;2023-04-24T13:17:11;11.85;;;8.55;;
42978;SDS011;28616;44.746;19.678;2023-04-24T13:19:41;9.45;;;7.95;;
42978;SDS011;28616;44.746;19.678;2023-04-24T13:22:11;10.55;;;7.63;;
42978;SDS011;28616;44.746;19.678;2023-04-24T13:24:38;16.52;;;9.63;;
42978;SDS011;28616;44.746;19.678;2023-04-24T13:27:07;12.50;;;8.65;;
42978;SDS011;28616;44.746;19.678;2023-04-24T13:29:34;8.50;;;7.50;;
42978;SDS011;28616;44.746;19.678;2023-04-24T13:32:00;10.88;;;8.05;;
42978;SDS011;28616;44.746;19.678;2023-04-24T13:34:26;9.82;;;7.80;;
42978;SDS011;28616;44.746;19.678;2023-04-24T13:36:53;12.55;;;8.15;;
42978;SDS011;28616;44.746;19.678;2023-04-24T13:39:21;11.20;;;8.25;;
42978;SDS011;28616;44.746;19.678;2023-04-24T13:41:47;9.25;;;7.70;;
42978;SDS011;28616;44.746;19.678;2023-04-24T13:44:14;13.45;;;8.85;;
42978;SDS011;28616;44.746;19.678;2023-04-24T13:46:41;8.70;;;7.75;;
42978;SDS011;28616;44.746;19.678;2023-04-24T13:49:09;9.40;;;7.10;;
42978;SDS011;28616;44.746;19.678;2023-04-24T13:51:35;10.50;;;7.60;;
42978;SDS011;28616;44.746;19.678;2023-04-24T13:54:01;9.30;;;7.57;;
42978;SDS011;28616;44.746;19.678;2023-04-24T13:56:26;9.63;;;7.93;;
42978;SDS011;28616;44.746;19.678;2023-04-24T13:58:52;10.23;;;8.10;;
42978;SDS011;28616;44.746;19.678;2023-04-24T14:01:21;10.45;;;8.48;;
42978;SDS011;28616;44.746;19.678;2023-04-24T14:03:50;9.18;;;7.55;;
42978;SDS011;28616;44.746;19.678;2023-04-24T14:06:16;9.52;;;7.38;;
42978;SDS011;28616;44.746;19.678;2023-04-24T14:08:43;13.77;;;8.75;;
42978;SDS011;28616;44.746;19.678;2023-04-24T14:11:14;8.68;;;7.78;;
42978;SDS011;28616;44.746;19.678;2023-04-24T14:13:41;10.43;;;7.57;;
42978;SDS011;28616;44.746;19.678;2023-04-24T14:16:07;10.65;;;7.90;;
42978;SDS011;28616;44.746;19.678;2023-04-24T14:18:33;11.23;;;8.10;;
42978;SDS011;28616;44.746;19.678;2023-04-24T14:20:59;9.45;;;7.32;;
42978;SDS011;28616;44.746;19.678;2023-04-24T14:23:26;9.15;;;7.45;;
42978;SDS011;28616;44.746;19.678;2023-04-24T14:25:52;7.97;;;7.10;;
42978;SDS011;28616;44.746;19.678;2023-04-24T14:28:18;10.65;;;8.60;;
42978;SDS011;28616;44.746;19.678;2023-04-24T14:30:45;11.50;;;8.38;;
42978;SDS011;28616;44.746;19.678;2023-04-24T14:33:11;11.95;;;7.82;;
42978;SDS011;28616;44.746;19.678;2023-04-24T14:35:41;11.20;;;8.48;;
42978;SDS011;28616;44.746;19.678;2023-04-24T14:38:07;16.80;;;10.20;;
42978;SDS011;28616;44.746;19.678;2023-04-24T14:40:34;14.15;;;10.32;;
42978;SDS011;28616;44.746;19.678;2023-04-24T14:43:00;11.65;;;8.70;;
42978;SDS011;28616;44.746;19.678;2023-04-24T14:45:26;8.70;;;7.80;;
42978;SDS011;28616;44.746;19.678;2023-04-24T14:47:52;14.68;;;10.25;;
42978;SDS011;28616;44.746;19.678;2023-04-24T14:50:19;10.55;;;8.10;;
42978;SDS011;28616;44.746;19.678;2023-04-24T14:52:45;10.43;;;7.72;;
42978;SDS011;28616;44.746;19.678;2023-04-24T14:55:11;8.15;;;7.40;;
42978;SDS011;28616;44.746;19.678;2023-04-24T14:57:37;12.52;;;7.97;;
42978;SDS011;28616;44.746;19.678;2023-04-24T15:00:07;12.10;;;8.45;;
42978;SDS011;28616;44.746;19.678;2023-04-24T15:02:35;8.35;;;7.03;;
42978;SDS011;28616;44.746;19.678;2023-04-24T15:05:05;9.52;;;6.82;;